Latest Weather Observations for Low Isles

IDQ60801

Issued at 9:32 pm EST Saturday 23 May 2015 (issued every 30 minutes, with the page automatically refreshed every 10 minutes)

About weather observations | Map of weather stations | Latest weather observations for QLD | Other Formats
Station Details ID: 031037 Name: LOW ISLES LIGHTHOUSE Lat: -16.38 Lon: 145.56 Height: 2.9 m
Data from the previous 72 hours. | See also: Recent months at Low Isles
Date/Time
EST
Temp
°C
App
Temp
°C
Dew
Point
Rel
Hum
%
Delta-T
°C
Wind Press
QNH
hPa
Press
MSL
hPa
Rain
since 9 am
mm
Dir
 
Spd
km/h
Gust
km/h
Spd
kts
Gust
kts
23/09:30pm 23.3 18.2 16.8 67 4.0 SE 39 46 21 25 1019.0 - 0.0
23/09:00pm 23.3 17.8 16.8 67 4.0 SE 41 48 22 26 1019.1 1019.0 0.0
23/08:30pm 23.3 17.8 16.8 67 4.0 SE 41 52 22 28 1018.9 - 0.0
23/08:00pm 23.3 17.6 17.7 71 3.5 SE 44 52 24 28 1018.6 - 0.0
23/07:30pm 23.4 18.7 18.7 75 3.0 SE 41 48 22 26 1018.3 - 0.0
23/07:00pm 23.2 18.0 18.3 74 3.1 SE 43 48 23 26 1018.1 - 0.0
23/06:30pm 23.4 18.3 18.5 74 3.1 SE 43 50 23 27 1017.8 - 0.0
23/06:00pm 23.5 18.4 18.6 74 3.1 SE 43 52 23 28 1017.5 1017.4 0.0
23/05:30pm 23.7 18.4 18.6 73 3.2 SE 44 52 24 28 1017.2 - 0.0
23/05:00pm 23.7 17.8 18.1 71 3.5 SE 46 54 25 29 1016.9 - 0.0
23/04:30pm 24.0 18.8 18.4 71 3.5 SE 43 52 23 28 1016.6 - 0.0
23/04:00pm 24.1 19.2 18.1 69 3.8 SE 41 46 22 25 1016.3 - 0.0
23/03:30pm 24.3 19.7 18.0 68 4.0 SE 39 48 21 26 1016.2 - 0.0
23/03:00pm 24.3 19.3 18.0 68 3.9 SE 41 48 22 26 1016.3 1016.2 0.0
23/02:30pm 24.7 19.4 18.2 67 4.1 SE 43 50 23 27 1016.3 - 0.0
23/02:00pm 25.2 20.0 17.4 62 4.9 SE 41 50 22 27 1016.5 - 0.0
23/01:30pm 25.1 19.4 17.3 62 4.9 SE 43 52 23 28 1016.7 - 0.0
23/01:00pm 25.1 19.7 17.0 60 5.0 SE 41 48 22 26 1017.2 - 0.0
23/12:30pm 25.3 20.2 16.7 59 5.3 SE 39 46 21 25 1017.5 - 0.0
23/12:00pm 25.0 19.0 16.4 59 5.3 SE 43 50 23 27 1017.8 1017.7 0.0
23/11:30am 25.0 18.9 16.7 60 5.1 SE 44 52 24 28 1018.0 - 0.0
23/11:00am 24.7 18.4 16.2 59 5.2 SSE 44 52 24 28 1018.3 - 0.0
23/10:30am 24.7 18.5 15.9 58 5.3 SE 43 48 23 26 1018.5 - 0.0
23/10:00am 24.5 19.1 16.0 59 5.2 SE 39 48 21 26 1018.7 - 0.0
23/09:30am 24.4 19.7 15.9 59 5.2 SSE 35 43 19 23 1018.7 - 0.0
23/09:00am 24.2 20.2 16.2 61 4.9 SSE 32 35 17 19 1018.6 1018.5 0.0
23/08:30am 24.2 19.1 15.7 59 5.1 SSE 37 46 20 25 1018.3 - 0.0
23/08:00am 24.2 19.2 15.1 56 5.4 SE 35 44 19 24 1018.0 - 0.0
23/07:30am 24.3 20.5 17.1 64 4.5 SE 33 44 18 24 1017.7 - 0.0
23/07:00am 24.4 20.5 16.9 63 4.6 SSE 33 41 18 22 1017.5 - 0.0
23/06:30am 24.5 20.9 17.2 63 4.5 SSE 32 39 17 21 1017.0 - 0.0
23/06:00am 24.6 20.8 16.8 62 4.8 SSE 32 37 17 20 1016.7 1016.6 0.0
23/05:30am 24.9 20.6 17.9 65 4.4 SSE 37 46 20 25 1016.2 - 0.0
23/05:00am 25.1 20.3 17.6 63 4.7 SSE 39 48 21 26 1016.0 - 0.0
23/04:30am 25.0 22.2 18.2 66 4.3 S 30 37 16 20 1015.9 - 0.0
23/04:00am 25.0 21.5 18.0 65 4.4 SSE 33 41 18 22 1015.8 - 0.0
23/03:30am 25.1 23.1 19.2 70 3.8 SSE 28 35 15 19 1015.8 - 0.0
23/03:00am 24.9 24.7 19.3 71 3.6 S 19 22 10 12 1015.8 1015.7 0.0
23/02:30am 24.9 24.6 19.5 72 3.5 S 20 22 11 12 1016.0 - 0.0
23/02:00am 24.9 25.4 19.3 71 3.6 SSE 15 20 8 11 1016.1 - 0.0
23/01:30am 24.8 25.3 19.2 71 3.6 S 15 19 8 10 1016.3 - 0.0
23/01:00am 24.9 24.8 19.5 72 3.5 SSE 19 24 10 13 1016.4 - 0.0
23/12:30am 25.1 25.1 20.1 74 3.2 S 20 24 11 13 1016.5 - 0.0
23/12:00am 25.1 25.0 19.9 73 3.4 SSE 20 26 11 14 1016.6 1016.5 0.0
 
Date/Time
EST
Temp
°C
App
Temp
°C
Dew
Point
Rel
Hum
%
Delta-T
°C
Wind Press
QNH
hPa
Press
MSL
hPa
Rain
since 9 am
mm
Dir
 
Spd
km/h
Gust
km/h
Spd
kts
Gust
kts
22/11:30pm 25.1 25.0 19.9 73 3.4 SSE 20 24 11 13 1016.9 - 0.0
22/11:00pm 25.2 25.5 20.5 75 3.1 S 19 20 10 11 1017.0 - 0.0
22/10:30pm 25.3 25.3 20.1 73 3.4 SSE 20 24 11 13 1017.1 - 0.0
22/10:00pm 25.5 24.6 19.9 71 3.6 SSE 24 30 13 16 1017.0 - 0.0
22/09:30pm 25.6 23.9 19.7 70 3.8 SE 28 33 15 18 1016.9 - 0.0
22/09:00pm 25.5 23.0 18.9 67 4.2 SE 30 35 16 19 1016.8 1016.7 0.0
22/08:30pm 25.3 23.1 18.7 67 4.2 SE 28 35 15 19 1016.7 - 0.0
22/08:00pm 25.3 23.2 19.0 68 4.0 SE 28 33 15 18 1016.6 - 0.0
22/07:30pm 25.1 23.7 19.7 72 3.5 ESE 26 32 14 17 1016.4 - 0.0
22/07:00pm 25.1 23.4 19.7 72 3.5 ESE 28 35 15 19 1016.1 - 0.0
22/06:30pm 25.1 23.0 19.7 72 3.5 ESE 30 37 16 20 1015.9 - 0.0
22/06:00pm 25.2 23.1 19.8 72 3.5 ESE 30 35 16 19 1015.7 1015.6 0.0
22/05:30pm 25.4 23.6 19.5 70 3.8 ESE 28 33 15 18 1015.4 - 0.0
22/05:00pm 25.7 23.4 19.3 67 4.1 SE 30 35 16 19 1015.0 - 0.0
22/04:30pm 26.3 24.4 20.2 69 4.0 SE 30 33 16 18 1014.8 - 0.0
22/04:00pm 26.9 25.8 20.3 67 4.3 SE 26 33 14 18 1014.7 - 0.0
22/03:30pm 27.2 25.1 19.8 64 4.8 ESE 30 39 16 21 1014.7 - 0.0
22/03:00pm 27.8 25.3 19.8 61 5.2 ESE 32 39 17 21 1014.6 1014.5 0.0
22/02:30pm 28.3 26.1 20.3 62 5.3 ESE 32 41 17 22 1014.6 - 0.0
22/02:00pm 29.0 28.0 22.0 66 4.7 ESE 30 41 16 22 1014.8 - 0.0
22/01:30pm 29.1 27.6 21.8 64 4.9 ESE 32 37 17 20 1014.9 - 0.0
22/01:00pm 29.1 28.4 21.1 62 5.3 ESE 26 35 14 19 1015.4 - 0.0
22/12:30pm 29.6 29.6 21.0 60 5.7 ESE 22 28 12 15 1015.8 - 0.0
22/12:00pm 28.8 29.5 20.5 61 5.5 ESE 17 24 9 13 1016.1 1016.0 0.0
22/11:30am 28.9 30.6 20.9 62 5.3 ESE 13 19 7 10 1016.5 - 0.0
22/11:00am 27.6 30.3 20.2 64 4.8 S 6 9 3 5 1016.9 - 0.0
22/10:30am 27.2 30.0 21.5 71 3.8 S 9 11 5 6 1017.3 - 0.0
22/10:00am 25.9 28.3 20.9 74 3.3 S 9 13 5 7 1017.4 - 0.0
22/09:30am 25.5 26.6 21.2 77 2.8 SSW 17 17 9 9 1017.4 - 0.0
22/09:00am 25.1 26.6 21.2 79 2.6 S 15 19 8 10 1017.6 1017.5 0.0
22/08:30am 24.9 26.5 21.4 81 2.3 S 15 17 8 9 1017.3 - 0.0
22/08:00am 24.7 26.8 21.0 80 2.4 S 11 15 6 8 1017.1 - 0.0
22/07:30am 24.7 26.9 21.2 81 2.3 SSE 11 15 6 8 1016.8 - 0.0
22/07:00am 24.6 26.4 21.1 81 2.3 S 13 15 7 8 1016.6 - 0.0
22/06:30am 24.7 25.5 21.4 82 2.2 SSW 19 20 10 11 1016.0 - 0.0
22/06:00am 24.9 26.2 21.6 82 2.2 S 17 20 9 11 1015.8 1015.7 0.0
22/05:30am 24.8 26.0 21.5 82 2.2 S 17 20 9 11 1015.6 - 0.0
22/05:00am 24.8 26.5 21.7 83 2.1 S 15 19 8 10 1015.3 - 0.0
22/04:30am 24.9 26.7 21.8 83 2.1 S 15 17 8 9 1015.1 - 0.0
22/04:00am 24.9 27.1 21.8 83 2.1 S 13 17 7 9 1015.1 - 0.0
22/03:30am 24.9 26.6 21.6 82 2.2 S 15 19 8 10 1014.9 - 0.0
22/03:00am 25.0 26.4 21.9 83 2.1 SSW 17 20 9 11 1015.1 1015.0 0.0
22/02:30am 25.1 26.4 22.4 85 1.8 SSW 19 20 10 11 1015.3 - 0.0
22/02:00am 25.0 26.6 22.1 84 1.9 SW 17 19 9 10 1015.3 - 0.0
22/01:30am 25.1 27.8 22.2 84 1.9 SSW 11 15 6 8 1015.5 - 0.0
22/01:00am 25.1 27.5 22.2 84 1.9 SSW 13 15 7 8 1015.7 - 0.0
22/12:30am 25.1 27.6 22.4 85 1.8 S 13 17 7 9 1016.1 - 0.0
22/12:00am 25.3 27.5 22.6 85 1.8 S 15 19 8 10 1016.3 1016.2 0.0
 
Date/Time
EST
Temp
°C
App
Temp
°C
Dew
Point
Rel
Hum
%
Delta-T
°C
Wind Press
QNH
hPa
Press
MSL
hPa
Rain
since 9 am
mm
Dir
 
Spd
km/h
Gust
km/h
Spd
kts
Gust
kts
21/11:30pm 25.3 27.1 22.6 85 1.8 SE 17 20 9 11 1016.7 - 0.0
21/11:00pm 25.4 27.2 22.5 84 1.9 SSE 17 19 9 10 1016.9 - 0.0
21/10:30pm 25.5 28.0 22.4 83 2.1 SSE 13 17 7 9 1017.0 - 0.0
21/10:00pm 25.5 27.6 22.4 83 2.1 SSE 15 17 8 9 1016.9 - 0.0
21/09:30pm 25.4 27.0 22.1 82 2.2 SE 17 19 9 10 1017.0 - 0.0
21/09:00pm 25.4 27.2 21.9 81 2.3 SE 15 19 8 10 1017.1 1017.0 0.0
21/08:30pm 25.4 27.7 22.1 82 2.2 SE 13 15 7 8 1017.0 - 0.0
21/08:00pm 25.3 26.6 21.6 80 2.5 SE 17 19 9 10 1016.7 - 0.0
21/07:30pm 25.3 26.6 21.6 80 2.5 SE 17 19 9 10 1016.4 - 0.0
21/07:00pm 25.3 27.1 21.8 81 2.3 ESE 15 19 8 10 1016.1 - 0.0
21/06:30pm 25.4 27.1 21.7 80 2.5 SE 15 19 8 10 1015.8 - 0.0
21/06:00pm 25.4 27.0 21.5 79 2.6 SE 15 19 8 10 1015.5 1015.4 0.0
21/05:30pm 25.8 27.4 22.1 80 2.5 SE 17 20 9 11 1015.2 - 0.0
21/05:00pm 26.2 27.9 22.3 79 2.6 SE 17 20 9 11 1015.0 - 0.0
21/04:30pm 26.7 28.1 21.9 75 3.2 SE 17 20 9 11 1014.9 - 0.0
21/04:00pm 27.5 28.7 21.5 70 4.0 ESE 17 24 9 13 1014.7 - 0.0
21/03:30pm 28.1 29.0 21.9 69 4.2 ESE 20 24 11 13 1014.7 - 0.0
21/03:00pm 29.0 30.5 22.0 66 4.7 ESE 17 20 9 11 1014.9 1014.8 0.0
21/02:30pm 28.8 30.4 22.1 67 4.5 ESE 17 22 9 12 1015.0 - 0.0
21/02:00pm 27.7 28.7 21.7 70 4.0 SE 19 24 10 13 1015.4 - 0.0
21/01:30pm 27.8 28.5 21.6 69 4.1 SE 20 24 11 13 1015.5 - 0.0
21/01:00pm 27.8 28.6 21.3 67 4.3 SE 19 20 10 11 1016.0 - 0.0
21/12:30pm 28.1 29.2 21.9 69 4.2 SE 19 20 10 11 1016.5 - 0.0
21/12:00pm 27.3 28.4 21.3 69 4.0 SSE 17 20 9 11 1016.9 1016.8 0.0
21/11:30am 27.2 28.2 21.0 69 4.1 SSE 17 20 9 11 1017.4 - 0.0
21/11:00am 26.8 27.7 20.9 70 3.9 SSE 17 20 9 11 1017.8 - 0.0
21/10:30am 26.6 27.9 20.9 71 3.8 SSE 15 19 8 10 1018.1 - 0.0
21/10:00am 26.0 27.9 21.4 76 3.1 S 13 15 7 8 1018.3 - 0.0
21/09:30am 25.4 27.3 21.3 78 2.7 S 13 17 7 9 1018.4 - 0.0
21/09:00am 25.1 26.6 21.2 79 2.6 SSW 15 17 8 9 1018.3 1018.2 0.0
21/08:30am 24.9 26.4 21.2 80 2.4 SSW 15 17 8 9 1017.9 - 0.0
21/08:00am 24.6 25.8 20.7 79 2.6 SSW 15 17 8 9 1017.7 - 0.0
21/07:30am 24.4 26.0 20.7 80 2.4 SSW 13 17 7 9 1017.4 - 0.0
21/07:00am 24.4 25.6 20.7 80 2.4 SSW 15 19 8 10 1017.2 - 0.0
21/06:30am 24.3 25.1 20.6 80 2.4 SSW 17 19 9 10 1016.8 - 0.0
21/06:00am 24.5 25.5 21.0 81 2.3 SW 17 19 9 10 1016.5 1016.4 0.0
21/05:30am 24.4 25.3 20.9 81 2.3 SSW 17 20 9 11 1016.3 - 0.0
21/05:00am 24.3 25.6 20.8 81 2.3 SSW 15 17 8 9 1016.1 - 0.0
21/04:30am 24.2 25.4 20.7 81 2.3 SSW 15 17 8 9 1015.9 - 0.0
21/04:00am 24.3 25.7 21.0 82 2.2 SW 15 17 8 9 1015.9 - 0.0
21/03:30am 24.4 25.8 21.1 82 2.2 SSW 15 17 8 9 1016.0 - 0.0
21/03:00am 24.4 25.4 21.1 82 2.2 SSW 17 20 9 11 1016.0 1015.9 0.0
21/02:30am 24.5 26.0 21.2 82 2.2 S 15 20 8 11 1016.2 - 0.0
21/02:00am 24.5 25.6 21.2 82 2.2 S 17 20 9 11 1016.5 - 0.0
21/01:30am 24.6 25.3 21.5 83 2.1 S 20 26 11 14 1016.8 - 0.0
21/01:00am 24.9 25.1 22.0 84 1.9 S 24 28 13 15 1017.0 - 0.0
21/12:30am 24.9 25.8 22.0 84 1.9 SSE 20 24 11 13 1017.2 - 0.0
21/12:00am 24.9 25.9 21.8 83 2.1 S 19 20 10 11 1017.3 1017.2 0.0
 
Date/Time
EST
Temp
°C
App
Temp
°C
Dew
Point
Rel
Hum
%
Delta-T
°C
Wind Press
QNH
hPa
Press
MSL
hPa
Rain
since 9 am
mm
Dir
 
Spd
km/h
Gust
km/h
Spd
kts
Gust
kts
20/11:30pm 25.0 26.1 21.9 83 2.1 SSE 19 20 10 11 1017.4 - 0.0
20/11:00pm 25.1 25.9 21.8 82 2.2 S 20 26 11 14 1017.7 - 0.0
20/10:30pm 25.2 25.9 22.3 84 1.9 SSE 22 26 12 14 1017.7 - 0.0
20/10:00pm 25.2 24.8 22.3 84 1.9 SE 28 32 15 17 1017.6 - 0.0

Other Formats:

Comma delimited format used in spreadsheet applications
http://www.bom.gov.au/fwo/IDQ60801/IDQ60801.94285.axf

JavaScript Object Notation format (JSON) in row-major order
http://www.bom.gov.au/fwo/IDQ60801/IDQ60801.94285.json